States of Jersey

Home Log in

METAR EGJJ 180550Z 32003KT CAVOK 07/03 Q1026

METAR EGJB 180550Z 35003KT CAVOK 07/03 Q1026

METAR LFRD 180600Z AUTO 16002KT 0400 0350 R35L/0450N FG VV/// 05/05 Q1027 NOSIG

METAR LFRC 180600Z AUTO 26002KT 9999 FEW040 BKN056 04/02 Q1026 NOSIG